createdAt,value
2023-03-06T00:01:01.832Z,54.83
2023-03-06T00:03:28.487Z,54.68
2023-03-06T00:05:57.125Z,54.75
2023-03-06T00:08:24.807Z,54.99
2023-03-06T00:10:51.387Z,54.75
2023-03-06T00:13:20.696Z,55.18
2023-03-06T00:15:48.441Z,55.28
2023-03-06T00:18:15.058Z,55.53
2023-03-06T00:20:43.360Z,55.04
2023-03-06T00:23:10.869Z,55.29
2023-03-06T00:25:38.641Z,55.24
2023-03-06T00:28:06.195Z,55.44
2023-03-06T00:30:32.970Z,55.39
2023-03-06T00:32:59.314Z,55.79
2023-03-06T00:35:25.814Z,55.33
2023-03-06T00:37:52.190Z,55.53
2023-03-06T00:40:20.431Z,55.29
2023-03-06T00:42:47.798Z,55.88
2023-03-06T00:45:14.505Z,55.90
2023-03-06T00:47:41.381Z,56.12
2023-03-06T00:50:08.435Z,56.10
2023-03-06T00:52:34.972Z,55.37
2023-03-06T00:55:01.444Z,55.95
2023-03-06T00:57:27.775Z,55.68
2023-03-06T00:59:54.148Z,55.91
2023-03-06T01:02:20.604Z,56.05
2023-03-06T01:04:47.237Z,55.92
2023-03-06T01:07:13.693Z,56.32
2023-03-06T01:09:41.194Z,56.34
2023-03-06T01:12:08.119Z,56.10
2023-03-06T01:14:35.022Z,56.30
2023-03-06T01:17:01.401Z,56.59
2023-03-06T01:19:27.789Z,56.32
2023-03-06T01:21:54.189Z,56.48
2023-03-06T01:24:20.620Z,56.47
2023-03-06T01:26:46.945Z,56.43
2023-03-06T01:29:13.274Z,56.75
2023-03-06T01:31:39.794Z,56.43
2023-03-06T01:34:06.166Z,56.76
2023-03-06T01:36:32.494Z,56.54
2023-03-06T01:38:58.890Z,56.48
2023-03-06T01:41:25.214Z,56.38
2023-03-06T01:43:51.596Z,56.63
2023-03-06T01:46:24.883Z,56.61
2023-03-06T01:48:55.484Z,56.44
2023-03-06T01:51:25.378Z,56.57
2023-03-06T01:53:53.313Z,56.34
2023-03-06T01:56:20.585Z,56.48
2023-03-06T01:58:49.529Z,56.49
2023-03-06T02:01:17.166Z,55.93
2023-03-06T02:03:44.030Z,56.07
2023-03-06T02:06:10.874Z,56.30
2023-03-06T02:08:37.508Z,56.22
2023-03-06T02:11:17.301Z,56.50
2023-03-06T02:13:45.660Z,56.27
2023-03-06T02:16:13.336Z,56.18
2023-03-06T02:18:41.994Z,56.01
2023-03-06T02:21:12.094Z,56.47
2023-03-06T02:24:07.040Z,56.22
2023-03-06T02:26:36.492Z,56.28
2023-03-06T02:29:03.298Z,56.62
2023-03-06T02:31:32.968Z,57.00
2023-03-06T02:34:28.368Z,56.60
2023-03-06T02:37:04.865Z,56.87
2023-03-06T02:39:33.884Z,56.64
2023-03-06T02:42:00.214Z,57.03
2023-03-06T02:44:28.147Z,57.01
2023-03-06T02:46:54.465Z,57.29
2023-03-06T02:49:20.975Z,57.79
2023-03-06T02:51:47.286Z,57.38
2023-03-06T02:54:13.611Z,57.66
2023-03-06T02:56:40.080Z,57.55
2023-03-06T02:59:06.390Z,57.58
2023-03-06T03:01:32.836Z,58.06
2023-03-06T03:03:59.357Z,57.95
2023-03-06T03:06:25.736Z,57.87
2023-03-06T03:08:52.038Z,58.22
2023-03-06T03:11:18.369Z,57.91
2023-03-06T03:13:44.785Z,58.68
2023-03-06T03:16:15.345Z,58.53
2023-03-06T03:18:44.418Z,58.31
2023-03-06T03:21:12.703Z,58.23
2023-03-06T03:23:39.733Z,58.54
2023-03-06T03:26:08.347Z,58.49
2023-03-06T03:28:34.769Z,58.55
2023-03-06T03:31:06.723Z,58.74
2023-03-06T03:33:33.677Z,58.85
2023-03-06T03:36:01.554Z,58.50
2023-03-06T03:38:28.809Z,58.69
2023-03-06T03:40:55.262Z,58.79
2023-03-06T03:43:21.645Z,58.92
2023-03-06T03:45:48.015Z,58.82
2023-03-06T03:48:14.408Z,58.39
2023-03-06T03:50:40.772Z,58.95
2023-03-06T03:53:07.108Z,58.67
2023-03-06T03:55:33.448Z,58.96
2023-03-06T03:57:59.763Z,58.83
2023-03-06T04:00:26.092Z,59.07
2023-03-06T04:02:52.447Z,59.12
2023-03-06T04:05:18.770Z,59.10
2023-03-06T04:07:45.190Z,59.29
2023-03-06T04:10:12.292Z,58.92
2023-03-06T04:12:38.845Z,59.07
2023-03-06T04:15:07.036Z,59.19
2023-03-06T04:17:36.864Z,59.27
2023-03-06T04:20:04.854Z,59.55
2023-03-06T04:22:31.332Z,59.43
2023-03-06T04:24:57.738Z,59.43
2023-03-06T04:27:24.148Z,59.21
2023-03-06T04:29:50.483Z,59.43
2023-03-06T04:32:16.864Z,59.49
2023-03-06T04:34:43.257Z,59.43
2023-03-06T04:37:20.100Z,59.49
2023-03-06T04:39:46.721Z,59.44
2023-03-06T04:42:13.102Z,59.52
2023-03-06T04:44:39.477Z,59.93
2023-03-06T04:47:06.087Z,60.09
2023-03-06T04:49:32.573Z,60.04
2023-03-06T04:51:59.004Z,60.01
2023-03-06T04:54:25.322Z,59.86
2023-03-06T04:56:51.773Z,59.74
2023-03-06T04:59:18.136Z,60.20
2023-03-06T05:01:44.490Z,60.07
2023-03-06T05:04:10.877Z,59.84
2023-03-06T05:06:37.290Z,60.05
2023-03-06T05:09:03.826Z,60.26
2023-03-06T05:11:30.196Z,60.27
2023-03-06T05:13:56.615Z,60.02
2023-03-06T05:16:22.989Z,60.04
2023-03-06T05:18:50.680Z,60.11
2023-03-06T05:21:17.276Z,60.07
2023-03-06T05:23:43.865Z,60.13
2023-03-06T05:26:12.243Z,60.20
2023-03-06T05:28:38.682Z,60.38
2023-03-06T05:31:05.679Z,60.34
2023-03-06T05:33:33.761Z,60.30
2023-03-06T05:36:00.221Z,60.52
2023-03-06T05:38:27.287Z,60.42
2023-03-06T05:40:53.747Z,60.96
2023-03-06T05:43:20.426Z,60.68
2023-03-06T05:45:46.835Z,60.70
2023-03-06T05:48:13.951Z,60.93
2023-03-06T05:50:40.282Z,61.04
2023-03-06T05:53:06.748Z,61.14
2023-03-06T05:55:33.183Z,60.85
2023-03-06T05:57:59.805Z,60.90
2023-03-06T06:00:26.288Z,60.90
2023-03-06T06:02:52.681Z,61.23
2023-03-06T06:05:19.101Z,61.06
2023-03-06T06:07:45.426Z,60.95
2023-03-06T06:10:12.171Z,61.31
2023-03-06T06:12:38.748Z,61.30
2023-03-06T06:15:06.513Z,61.24
2023-03-06T06:17:33.001Z,60.89
2023-03-06T06:19:59.359Z,61.00
2023-03-06T06:22:25.700Z,61.54
2023-03-06T06:24:52.067Z,61.09
2023-03-06T06:27:18.399Z,61.20
2023-03-06T06:29:44.740Z,61.62
2023-03-06T06:32:11.139Z,61.15
2023-03-06T06:34:37.511Z,61.25
2023-03-06T06:37:04.004Z,61.57
2023-03-06T06:39:30.402Z,61.32
2023-03-06T06:42:14.530Z,61.68
2023-03-06T06:44:43.589Z,61.38
2023-03-06T06:47:22.342Z,61.69
2023-03-06T06:49:51.436Z,61.36
2023-03-06T06:52:18.673Z,61.33
2023-03-06T06:54:45.452Z,61.58
2023-03-06T06:57:12.524Z,61.53
2023-03-06T06:59:38.948Z,61.70
2023-03-06T07:02:05.774Z,61.63
2023-03-06T07:04:32.116Z,61.66
2023-03-06T07:06:59.092Z,61.69
2023-03-06T07:09:26.442Z,61.57
2023-03-06T07:11:52.955Z,61.50
2023-03-06T07:14:19.392Z,61.65
2023-03-06T07:16:45.731Z,61.84
2023-03-06T07:19:12.096Z,61.86
2023-03-06T07:21:38.436Z,61.41
2023-03-06T07:24:04.940Z,61.70
2023-03-06T07:26:34.474Z,61.51
2023-03-06T07:29:01.415Z,61.57
2023-03-06T07:31:28.545Z,61.90
2023-03-06T07:33:55.178Z,61.79
2023-03-06T07:36:23.236Z,61.88
2023-03-06T07:38:49.922Z,61.83
2023-03-06T07:41:17.068Z,62.20
2023-03-06T07:43:45.285Z,61.92
2023-03-06T07:46:13.043Z,62.07
2023-03-06T07:48:40.086Z,62.25
2023-03-06T07:51:13.194Z,62.35
2023-03-06T07:53:39.559Z,62.46
2023-03-06T07:56:08.773Z,62.53
2023-03-06T07:58:36.634Z,62.46
2023-03-06T08:01:14.366Z,62.43
2023-03-06T08:03:41.125Z,62.61
2023-03-06T08:06:16.344Z,62.19
2023-03-06T08:08:44.881Z,62.14
2023-03-06T08:11:13.661Z,62.40
2023-03-06T08:13:40.327Z,62.58
2023-03-06T08:16:08.100Z,62.71
2023-03-06T08:18:34.634Z,62.42
2023-03-06T08:21:07.162Z,62.51
2023-03-06T08:23:34.791Z,62.70
2023-03-06T08:26:04.326Z,62.46
2023-03-06T08:28:31.002Z,62.42
2023-03-06T08:30:58.454Z,62.90
2023-03-06T08:33:24.957Z,62.89
2023-03-06T08:35:52.372Z,62.81
2023-03-06T08:38:18.874Z,63.52
2023-03-06T08:40:45.235Z,63.32
2023-03-06T08:43:13.768Z,63.32
2023-03-06T08:45:40.764Z,63.34
2023-03-06T08:48:07.163Z,63.36
2023-03-06T08:50:33.593Z,63.17
2023-03-06T08:52:59.992Z,63.08
2023-03-06T08:55:27.999Z,63.18
2023-03-06T08:57:54.565Z,63.35
2023-03-06T09:00:21.086Z,63.27
2023-03-06T09:02:47.455Z,63.65
2023-03-06T09:05:13.903Z,63.35
2023-03-06T09:07:40.228Z,63.88
2023-03-06T09:10:07.083Z,63.71
2023-03-06T09:12:43.904Z,64.20
2023-03-06T09:15:16.415Z,64.43
2023-03-06T09:17:43.046Z,64.18
2023-03-06T09:20:11.043Z,63.97
2023-03-06T09:22:38.365Z,64.14
2023-03-06T09:25:06.377Z,63.77
2023-03-06T09:27:32.942Z,63.41
2023-03-06T09:29:59.305Z,62.59
2023-03-06T09:32:25.879Z,62.19
2023-03-06T09:34:52.285Z,61.68
2023-03-06T09:37:18.999Z,61.58
2023-03-06T09:39:45.413Z,61.35
2023-03-06T09:42:17.123Z,61.36
2023-03-06T09:44:50.258Z,61.56
2023-03-06T09:47:37.914Z,61.26
2023-03-06T09:50:13.706Z,61.66
2023-03-06T09:52:45.978Z,61.59
2023-03-06T09:55:14.496Z,61.29
2023-03-06T09:58:00.634Z,60.69
2023-03-06T10:01:00.176Z,61.09
2023-03-06T10:03:51.896Z,61.32
2023-03-06T10:06:26.267Z,61.31
2023-03-06T10:09:00.626Z,60.36
2023-03-06T10:11:53.324Z,60.01
2023-03-06T10:14:39.948Z,60.14
2023-03-06T10:17:15.817Z,59.95
2023-03-06T10:19:42.436Z,59.52
2023-03-06T10:22:55.380Z,58.51
2023-03-06T10:25:27.995Z,57.25
2023-03-06T10:28:10.955Z,54.91
2023-03-06T10:30:58.593Z,55.86
2023-03-06T10:33:46.561Z,55.68
2023-03-06T10:36:29.701Z,55.49
2023-03-06T10:38:58.352Z,56.29
2023-03-06T10:41:26.364Z,55.53
2023-03-06T10:44:12.898Z,55.63
2023-03-06T10:46:44.543Z,55.52
2023-03-06T10:49:32.522Z,55.01
2023-03-06T10:52:19.897Z,54.93
2023-03-06T10:55:24.070Z,55.27
2023-03-06T10:57:50.676Z,55.23
2023-03-06T11:00:27.743Z,55.42
2023-03-06T11:03:27.389Z,55.21
2023-03-06T11:06:31.686Z,55.09
2023-03-06T11:09:24.719Z,55.09
2023-03-06T11:11:51.225Z,54.40
2023-03-06T11:14:27.190Z,54.97
2023-03-06T11:16:54.133Z,54.58
2023-03-06T11:19:26.372Z,53.77
2023-03-06T11:22:04.621Z,54.11
2023-03-06T11:24:45.955Z,53.56
2023-03-06T11:27:25.248Z,53.11
2023-03-06T11:29:54.585Z,52.78
2023-03-06T11:32:30.894Z,52.26
2023-03-06T11:35:02.493Z,51.73
2023-03-06T11:37:31.935Z,51.82
2023-03-06T11:40:26.269Z,50.74
2023-03-06T11:43:20.872Z,51.22
2023-03-06T11:45:56.939Z,51.10
2023-03-06T11:48:30.697Z,51.18
2023-03-06T11:51:26.152Z,50.77
2023-03-06T11:53:54.152Z,50.70
2023-03-06T11:56:31.900Z,51.23
2023-03-06T11:59:29.202Z,50.21
2023-03-06T12:02:19.987Z,50.62
2023-03-06T12:04:55.580Z,50.69
2023-03-06T12:07:27.981Z,50.19
2023-03-06T12:09:54.251Z,50.25
2023-03-06T12:12:39.062Z,49.55
2023-03-06T12:15:33.605Z,49.71
2023-03-06T12:18:14.426Z,49.15
2023-03-06T12:21:04.296Z,48.63
2023-03-06T12:23:59.997Z,48.54
2023-03-06T12:26:32.415Z,48.31
2023-03-06T12:29:18.252Z,47.51
2023-03-06T12:32:08.380Z,47.39
2023-03-06T12:34:51.301Z,47.71
2023-03-06T12:37:47.464Z,46.63
2023-03-06T12:40:35.862Z,47.26
2023-03-06T12:43:22.667Z,47.15
2023-03-06T12:45:54.388Z,47.58
2023-03-06T12:48:29.350Z,47.34
2023-03-06T12:50:56.261Z,47.22
2023-03-06T12:53:29.022Z,47.36
2023-03-06T12:55:57.659Z,46.79
2023-03-06T12:58:30.124Z,46.84
2023-03-06T13:01:20.117Z,46.31
2023-03-06T13:03:58.662Z,45.40
2023-03-06T13:06:54.179Z,45.02
2023-03-06T13:09:44.689Z,44.55
2023-03-06T13:12:46.782Z,43.57
2023-03-06T13:15:40.972Z,43.10
2023-03-06T13:18:19.589Z,42.95
2023-03-06T13:20:46.183Z,42.95
2023-03-06T13:23:49.395Z,43.41
2023-03-06T13:26:25.143Z,42.83
2023-03-06T13:28:54.019Z,42.21
2023-03-06T13:31:48.091Z,42.07
2023-03-06T13:34:40.308Z,42.11
2023-03-06T13:37:19.840Z,41.68
2023-03-06T13:39:52.407Z,41.81
2023-03-06T13:42:54.493Z,42.09
2023-03-06T13:45:25.967Z,41.91
2023-03-06T13:50:47.042Z,42.54
2023-03-06T13:53:22.280Z,42.58
2023-03-06T13:56:08.219Z,41.01
2023-03-06T13:59:03.653Z,40.82
2023-03-06T14:01:33.040Z,40.34
2023-03-06T14:04:38.137Z,40.60
2023-03-06T14:07:19.473Z,40.56
2023-03-06T14:09:50.102Z,40.40
2023-03-06T14:12:26.666Z,40.21
2023-03-06T14:14:57.400Z,39.94
2023-03-06T14:17:30.074Z,40.54
2023-03-06T14:20:01.328Z,40.70
2023-03-06T14:22:27.690Z,40.70
2023-03-06T14:24:59.661Z,40.45
2023-03-06T14:28:05.731Z,40.60
2023-03-06T14:30:49.321Z,40.14
2023-03-06T14:33:29.074Z,40.69
2023-03-06T14:35:58.314Z,40.48
2023-03-06T14:38:26.056Z,40.59
2023-03-06T14:40:52.581Z,40.54
2023-03-06T14:43:20.668Z,41.21
2023-03-06T14:45:52.998Z,41.58
2023-03-06T14:48:19.353Z,40.88
2023-03-06T14:50:52.400Z,41.01
2023-03-06T14:53:23.041Z,40.97
2023-03-06T14:55:53.243Z,41.23
2023-03-06T14:58:42.032Z,41.41
2023-03-06T15:01:10.554Z,41.52
2023-03-06T15:03:48.925Z,41.49
2023-03-06T15:06:29.731Z,41.23
2023-03-06T15:09:08.312Z,41.78
2023-03-06T15:12:10.269Z,41.88
2023-03-06T15:14:41.700Z,42.04
2023-03-06T15:17:17.259Z,41.78
2023-03-06T15:19:45.742Z,40.98
2023-03-06T15:22:43.685Z,41.59
2023-03-06T15:25:16.336Z,41.46
2023-03-06T15:27:48.638Z,41.56
2023-03-06T15:30:35.048Z,41.34
2023-03-06T15:33:23.433Z,41.27
2023-03-06T15:35:54.938Z,41.02
2023-03-06T15:38:40.322Z,41.55
2023-03-06T15:41:20.113Z,41.21
2023-03-06T15:43:46.528Z,41.34
2023-03-06T15:46:13.230Z,40.98
2023-03-06T15:48:39.608Z,41.47
2023-03-06T15:51:06.293Z,41.53
2023-03-06T15:53:32.715Z,41.40
2023-03-06T15:55:59.437Z,41.79
2023-03-06T15:58:33.515Z,41.73
2023-03-06T16:01:00.093Z,41.76
2023-03-06T16:03:26.678Z,41.46
2023-03-06T16:05:53.056Z,41.95
2023-03-06T16:08:19.794Z,41.72
2023-03-06T16:10:47.558Z,41.62
2023-03-06T16:13:20.722Z,41.40
2023-03-06T16:15:50.059Z,41.67
2023-03-06T16:18:16.563Z,41.45
2023-03-06T16:20:43.116Z,41.11
2023-03-06T16:23:10.580Z,41.68
2023-03-06T16:25:42.237Z,42.11
2023-03-06T16:28:14.317Z,42.25
2023-03-06T16:30:43.272Z,42.20
2023-03-06T16:33:13.581Z,42.40
2023-03-06T16:35:41.146Z,42.60
2023-03-06T16:38:07.568Z,42.24
2023-03-06T16:40:37.500Z,42.65
2023-03-06T16:43:05.810Z,42.69
2023-03-06T16:45:36.570Z,42.64
2023-03-06T16:48:03.329Z,43.15
2023-03-06T16:50:36.266Z,43.21
2023-03-06T16:53:02.890Z,43.03
2023-03-06T16:55:29.276Z,43.38
2023-03-06T16:57:55.816Z,43.46
2023-03-06T17:00:24.626Z,43.39
2023-03-06T17:02:52.232Z,43.16
2023-03-06T17:05:19.420Z,43.60
2023-03-06T17:07:45.862Z,43.87
2023-03-06T17:10:15.910Z,43.81
2023-03-06T17:12:43.024Z,43.99
2023-03-06T17:15:10.052Z,43.69
2023-03-06T17:17:36.646Z,43.98
2023-03-06T17:20:04.547Z,44.23
2023-03-06T17:22:33.536Z,44.07
2023-03-06T17:25:06.649Z,44.25
2023-03-06T17:27:34.092Z,43.97
2023-03-06T17:30:01.051Z,44.16
2023-03-06T17:32:28.000Z,44.69
2023-03-06T17:34:54.745Z,44.32
2023-03-06T17:37:21.238Z,44.56
2023-03-06T17:39:47.670Z,44.50
2023-03-06T17:42:14.061Z,44.56
2023-03-06T17:44:40.381Z,44.66
2023-03-06T17:47:06.936Z,44.71
2023-03-06T17:49:33.476Z,44.67
2023-03-06T17:52:00.879Z,44.83
2023-03-06T17:54:29.119Z,44.42
2023-03-06T17:57:05.273Z,45.08
2023-03-06T17:59:34.157Z,45.09
2023-03-06T18:02:01.329Z,44.79
2023-03-06T18:04:28.208Z,45.25
2023-03-06T18:06:54.714Z,45.01
2023-03-06T18:09:21.116Z,45.55
2023-03-06T18:11:47.597Z,45.41
2023-03-06T18:14:14.080Z,45.35
2023-03-06T18:16:40.820Z,45.44
2023-03-06T18:19:07.177Z,45.28
2023-03-06T18:21:33.538Z,45.63
2023-03-06T18:23:59.883Z,45.76
2023-03-06T18:26:29.069Z,46.10
2023-03-06T18:28:58.156Z,46.08
2023-03-06T18:31:26.010Z,46.16
2023-03-06T18:33:54.972Z,46.43
2023-03-06T18:36:23.523Z,46.65
2023-03-06T18:38:50.026Z,47.07
2023-03-06T18:41:19.646Z,47.22
2023-03-06T18:43:51.619Z,47.39
2023-03-06T18:46:18.204Z,47.89
2023-03-06T18:48:44.548Z,48.30
2023-03-06T18:51:12.296Z,49.02
2023-03-06T18:53:39.950Z,49.15
2023-03-06T18:56:07.580Z,49.96
2023-03-06T18:58:34.580Z,49.79
2023-03-06T19:01:05.949Z,49.80
2023-03-06T19:03:32.313Z,50.89
2023-03-06T19:05:59.362Z,50.69
2023-03-06T19:08:25.790Z,50.67
2023-03-06T19:10:52.115Z,50.98
2023-03-06T19:13:18.500Z,51.19
2023-03-06T19:15:48.021Z,51.30
2023-03-06T19:18:17.342Z,51.37
2023-03-06T19:20:44.797Z,51.71
2023-03-06T19:23:11.332Z,52.17
2023-03-06T19:25:37.757Z,52.54
2023-03-06T19:28:04.711Z,52.63
2023-03-06T19:30:31.232Z,52.37
2023-03-06T19:32:57.634Z,52.11
2023-03-06T19:35:26.695Z,52.38
2023-03-06T19:37:53.395Z,52.44
2023-03-06T19:40:20.132Z,52.84
2023-03-06T19:42:46.816Z,52.93
2023-03-06T19:45:13.178Z,53.18
2023-03-06T19:47:39.494Z,53.67
2023-03-06T19:50:06.396Z,53.61
2023-03-06T19:52:36.347Z,53.63
2023-03-06T19:55:02.758Z,53.49
2023-03-06T19:57:29.135Z,53.80
2023-03-06T19:59:57.546Z,53.40
2023-03-06T20:02:27.322Z,53.41
2023-03-06T20:04:54.633Z,53.76
2023-03-06T20:07:21.187Z,54.02
2023-03-06T20:09:48.127Z,53.87
2023-03-06T20:12:15.476Z,54.32
2023-03-06T20:14:42.798Z,54.65
2023-03-06T20:17:09.273Z,54.42
2023-03-06T20:19:36.392Z,54.27
2023-03-06T20:22:03.201Z,54.68
2023-03-06T20:24:29.563Z,54.51
2023-03-06T20:26:57.592Z,54.72
2023-03-06T20:29:28.053Z,55.07
2023-03-06T20:31:55.955Z,55.38
2023-03-06T20:34:23.099Z,55.63
2023-03-06T20:36:49.625Z,55.34
2023-03-06T20:39:18.902Z,55.60
2023-03-06T20:41:46.785Z,55.78
2023-03-06T20:44:18.792Z,55.93
2023-03-06T20:46:45.990Z,56.02
2023-03-06T20:49:13.273Z,56.33
2023-03-06T20:51:41.357Z,56.44
2023-03-06T20:54:11.424Z,56.45
2023-03-06T20:56:39.595Z,56.50
2023-03-06T20:59:06.579Z,56.35
2023-03-06T21:01:41.025Z,56.51
2023-03-06T21:04:10.026Z,56.50
2023-03-06T21:06:37.654Z,56.43
2023-03-06T21:09:06.684Z,57.03
2023-03-06T21:11:34.862Z,57.13
2023-03-06T21:14:01.483Z,56.91
2023-03-06T21:16:30.062Z,57.15
2023-03-06T21:18:58.709Z,57.05
2023-03-06T21:21:28.079Z,56.82
2023-03-06T21:23:54.793Z,56.83
2023-03-06T21:26:23.844Z,57.19
2023-03-06T21:28:50.325Z,57.40
2023-03-06T21:31:18.900Z,57.26
2023-03-06T21:33:46.741Z,57.10
2023-03-06T21:36:13.458Z,57.19
2023-03-06T21:38:39.929Z,57.04
2023-03-06T21:41:24.970Z,57.26
2023-03-06T21:43:59.113Z,56.98
2023-03-06T21:46:26.889Z,57.03
2023-03-06T21:48:54.289Z,57.13
2023-03-06T21:51:23.474Z,56.95
2023-03-06T21:53:50.934Z,57.26
2023-03-06T21:56:20.677Z,57.40
2023-03-06T21:58:47.198Z,56.99
2023-03-06T22:01:31.530Z,57.08
2023-03-06T22:03:58.901Z,57.38
2023-03-06T22:06:27.278Z,57.37
2023-03-06T22:08:58.536Z,57.10
2023-03-06T22:11:26.151Z,57.31
2023-03-06T22:13:55.629Z,57.43
2023-03-06T22:16:22.164Z,57.22
2023-03-06T22:18:50.087Z,57.33
2023-03-06T22:21:19.241Z,57.71
2023-03-06T22:23:53.061Z,57.24
2023-03-06T22:26:20.248Z,57.22
2023-03-06T22:28:46.898Z,57.80
2023-03-06T22:31:16.936Z,57.99
2023-03-06T22:33:43.915Z,57.43
2023-03-06T22:36:12.949Z,57.35
2023-03-06T22:38:42.263Z,58.07
2023-03-06T22:41:10.533Z,58.23
2023-03-06T22:43:37.325Z,57.92
2023-03-06T22:46:06.224Z,58.43
2023-03-06T22:48:32.971Z,58.18
2023-03-06T22:51:12.208Z,58.04
2023-03-06T22:53:38.960Z,58.25
2023-03-06T22:56:07.909Z,58.10
2023-03-06T22:58:37.037Z,58.23
2023-03-06T23:01:15.506Z,58.33
2023-03-06T23:03:44.796Z,58.66
2023-03-06T23:06:35.169Z,58.49
2023-03-06T23:09:05.876Z,58.19
2023-03-06T23:11:33.440Z,58.40
2023-03-06T23:14:00.624Z,58.43
2023-03-06T23:16:26.983Z,58.63
2023-03-06T23:18:53.686Z,58.79
2023-03-06T23:21:21.452Z,59.07
2023-03-06T23:23:49.373Z,59.03
2023-03-06T23:26:16.467Z,59.23
2023-03-06T23:28:43.320Z,59.64
2023-03-06T23:31:11.921Z,59.42
2023-03-06T23:33:41.203Z,59.49
2023-03-06T23:36:10.873Z,59.54
2023-03-06T23:38:38.093Z,59.70
2023-03-06T23:41:10.610Z,59.67
2023-03-06T23:43:37.064Z,59.81
2023-03-06T23:46:03.571Z,60.14
2023-03-06T23:48:30.078Z,60.51
2023-03-06T23:50:57.054Z,60.46
2023-03-06T23:53:23.939Z,60.33
2023-03-06T23:55:51.352Z,60.58
2023-03-06T23:58:19.035Z,60.63
